UAL1863 KSFO-KSAN
Flight info
| Callsign | UAL1863 |
|---|---|
| Flight time | 1h 7m |
| Altitude | 35000 |
| Route | YYUNG LAX COMIX2 |
| Aircraft | B753/M-SDE2E3FGHIJ3J4J7RWXY/LB1 |
Departure
| Time | 2026-04-20 21:53 |
|---|---|
| Airport | San Francisco International Airport (KSFO) |
Arrival
| Time | 2026-04-20 23:01 |
|---|---|
| Airport | San Diego International Airport (KSAN) |
| Time | Latitude | Longitude | Altitude | Speed | Heading |
|---|---|---|---|---|---|
| 2026-04-20 21:22 | 37.61916 | -122.38344 | 34 ft | 0 kts | 291° |
| 2026-04-20 21:40 | 37.61911 | -122.38328 | 34 ft | 2 kts | 291° |
| 2026-04-20 21:41 | 37.61906 | -122.38309 | 34 ft | 2 kts | 301° |
| 2026-04-20 21:41 | 37.61896 | -122.38296 | 34 ft | 2 kts | 325° |
| 2026-04-20 21:41 | 37.61882 | -122.38288 | 34 ft | 2 kts | 345° |
| 2026-04-20 21:41 | 37.61868 | -122.38286 | 34 ft | 2 kts | 6° |
| 2026-04-20 21:42 | 37.61855 | -122.38290 | 34 ft | 0 kts | 25° |
| 2026-04-20 21:42 | 37.61849 | -122.38294 | 34 ft | 0 kts | 28° |
| 2026-04-20 21:44 | 37.61858 | -122.38288 | 34 ft | 3 kts | 27° |
| 2026-04-20 21:45 | 37.61874 | -122.38278 | 33 ft | 0 kts | 27° |
| 2026-04-20 21:46 | 37.61892 | -122.38268 | 34 ft | 4 kts | 26° |
| 2026-04-20 21:46 | 37.61926 | -122.38246 | 33 ft | 5 kts | 24° |
| 2026-04-20 21:46 | 37.61961 | -122.38242 | 34 ft | 4 kts | 341° |
| 2026-04-20 21:47 | 37.61991 | -122.38272 | 33 ft | 6 kts | 308° |
| 2026-04-20 21:47 | 37.62018 | -122.38329 | 34 ft | 8 kts | 299° |
| 2026-04-20 21:47 | 37.62046 | -122.38394 | 33 ft | 8 kts | 296° |
| 2026-04-20 21:47 | 37.62071 | -122.38456 | 34 ft | 8 kts | 298° |
| 2026-04-20 21:48 | 37.62098 | -122.38520 | 34 ft | 8 kts | 298° |
| 2026-04-20 21:48 | 37.62127 | -122.38586 | 33 ft | 8 kts | 298° |
| 2026-04-20 21:48 | 37.62153 | -122.38650 | 34 ft | 8 kts | 298° |
| 2026-04-20 21:48 | 37.62186 | -122.38729 | 33 ft | 11 kts | 298° |
| 2026-04-20 21:49 | 37.62230 | -122.38833 | 33 ft | 15 kts | 297° |
| 2026-04-20 21:49 | 37.62284 | -122.38957 | 32 ft | 16 kts | 305° |
| 2026-04-20 21:49 | 37.62371 | -122.39050 | 30 ft | 17 kts | 332° |
| 2026-04-20 21:49 | 37.62445 | -122.39161 | 28 ft | 16 kts | 298° |
| 2026-04-20 21:50 | 37.62492 | -122.39275 | 27 ft | 4 kts | 300° |
| 2026-04-20 21:50 | 37.62513 | -122.39316 | 27 ft | 6 kts | 307° |
| 2026-04-20 21:50 | 37.62534 | -122.39335 | 26 ft | 0 kts | 343° |
| 2026-04-20 21:52 | 37.62567 | -122.39329 | 26 ft | 9 kts | 24° |
| 2026-04-20 21:52 | 37.62599 | -122.39262 | 25 ft | 9 kts | 97° |
| 2026-04-20 21:53 | 37.62540 | -122.39092 | 26 ft | 52 kts | 118° |
| 2026-04-20 21:53 | 37.62239 | -122.38379 | 33 ft | 128 kts | 118° |
| 2026-04-20 21:53 | 37.61738 | -122.37137 | 187 ft | 177 kts | 119° |
| 2026-04-20 21:53 | 37.61243 | -122.35652 | 903 ft | 194 kts | 117° |
| 2026-04-20 21:54 | 37.60574 | -122.34097 | 1505 ft | 210 kts | 121° |
| 2026-04-20 21:54 | 37.60092 | -122.32332 | 2280 ft | 221 kts | 107° |
| 2026-04-20 21:54 | 37.59896 | -122.30451 | 3182 ft | 222 kts | 103° |
| 2026-04-20 21:54 | 37.59710 | -122.28524 | 3991 ft | 224 kts | 107° |
| 2026-04-20 21:55 | 37.59374 | -122.26634 | 4783 ft | 220 kts | 121° |
| 2026-04-20 21:55 | 37.58427 | -122.25233 | 5511 ft | 212 kts | 155° |
| 2026-04-20 21:55 | 37.57044 | -122.24564 | 6082 ft | 224 kts | 162° |
| 2026-04-20 21:55 | 37.55565 | -122.23663 | 6590 ft | 246 kts | 148° |
| 2026-04-20 21:56 | 37.54194 | -122.22350 | 7351 ft | 254 kts | 147° |
| 2026-04-20 21:56 | 37.52773 | -122.21040 | 8211 ft | 257 kts | 148° |
| 2026-04-20 21:56 | 37.51328 | -122.19730 | 9086 ft | 259 kts | 149° |
| 2026-04-20 21:56 | 37.49857 | -122.18407 | 9950 ft | 261 kts | 149° |
| 2026-04-20 21:57 | 37.48370 | -122.17080 | 10558 ft | 273 kts | 149° |
| 2026-04-20 21:57 | 37.46749 | -122.15643 | 10947 ft | 293 kts | 149° |
| 2026-04-20 21:57 | 37.45040 | -122.14128 | 11304 ft | 312 kts | 149° |
| 2026-04-20 21:57 | 37.43208 | -122.12505 | 11655 ft | 331 kts | 149° |
| 2026-04-20 21:58 | 37.41292 | -122.10806 | 12242 ft | 341 kts | 149° |
| 2026-04-20 21:58 | 37.39373 | -122.09103 | 13075 ft | 343 kts | 149° |
| 2026-04-20 21:58 | 37.37406 | -122.07364 | 13759 ft | 350 kts | 149° |
| 2026-04-20 21:58 | 37.35404 | -122.05593 | 14546 ft | 352 kts | 149° |
| 2026-04-20 21:59 | 37.33408 | -122.03831 | 15217 ft | 357 kts | 149° |
| 2026-04-20 21:59 | 37.31366 | -122.02029 | 15933 ft | 360 kts | 150° |
| 2026-04-20 21:59 | 37.29310 | -122.00216 | 16555 ft | 365 kts | 150° |
| 2026-04-20 21:59 | 37.27228 | -121.98381 | 17253 ft | 368 kts | 150° |
| 2026-04-20 22:00 | 37.25119 | -121.96524 | 17896 ft | 370 kts | 150° |
| 2026-04-20 22:00 | 37.23029 | -121.94682 | 18445 ft | 376 kts | 151° |
| 2026-04-20 22:00 | 37.20875 | -121.92793 | 18946 ft | 379 kts | 151° |
| 2026-04-20 22:00 | 37.18703 | -121.90886 | 18975 ft | 383 kts | 151° |
| 2026-04-20 22:01 | 37.16542 | -121.88985 | 18976 ft | 379 kts | 151° |
| 2026-04-20 22:01 | 37.14352 | -121.87065 | 19364 ft | 383 kts | 151° |
| 2026-04-20 22:01 | 37.12217 | -121.85191 | 20028 ft | 384 kts | 151° |
| 2026-04-20 22:01 | 37.09981 | -121.83235 | 20511 ft | 389 kts | 151° |
| 2026-04-20 22:02 | 37.07767 | -121.81296 | 21092 ft | 391 kts | 152° |
| 2026-04-20 22:02 | 37.05512 | -121.79324 | 21608 ft | 395 kts | 152° |
| 2026-04-20 22:02 | 37.03260 | -121.77356 | 22054 ft | 399 kts | 152° |
| 2026-04-20 22:02 | 37.00988 | -121.75372 | 22570 ft | 402 kts | 152° |
| 2026-04-20 22:03 | 36.98700 | -121.73341 | 22998 ft | 408 kts | 149° |
| 2026-04-20 22:03 | 36.96492 | -121.71086 | 23488 ft | 413 kts | 147° |
| 2026-04-20 22:03 | 36.94244 | -121.68797 | 23992 ft | 416 kts | 148° |
| 2026-04-20 22:03 | 36.91997 | -121.66510 | 24501 ft | 419 kts | 147° |
| 2026-04-20 22:04 | 36.89746 | -121.64223 | 24985 ft | 422 kts | 147° |
| 2026-04-20 22:04 | 36.87448 | -121.61892 | 25392 ft | 427 kts | 147° |
| 2026-04-20 22:04 | 36.85165 | -121.59575 | 26038 ft | 426 kts | 147° |
| 2026-04-20 22:04 | 36.82847 | -121.57229 | 26355 ft | 433 kts | 147° |
| 2026-04-20 22:05 | 36.80513 | -121.54867 | 26851 ft | 434 kts | 147° |
| 2026-04-20 22:05 | 36.78153 | -121.52481 | 27243 ft | 439 kts | 147° |
| 2026-04-20 22:05 | 36.75785 | -121.50087 | 27727 ft | 440 kts | 146° |
| 2026-04-20 22:05 | 36.73396 | -121.47676 | 28142 ft | 443 kts | 146° |
| 2026-04-20 22:06 | 36.70971 | -121.45230 | 28602 ft | 445 kts | 146° |
| 2026-04-20 22:06 | 36.68546 | -121.42788 | 28886 ft | 450 kts | 146° |
| 2026-04-20 22:06 | 36.66124 | -121.40347 | 29395 ft | 451 kts | 146° |
| 2026-04-20 22:06 | 36.63678 | -121.37888 | 29695 ft | 455 kts | 146° |
| 2026-04-20 22:07 | 36.61221 | -121.35416 | 30083 ft | 458 kts | 146° |
| 2026-04-20 22:07 | 36.58723 | -121.32906 | 30670 ft | 455 kts | 146° |
| 2026-04-20 22:07 | 36.56276 | -121.30450 | 31077 ft | 456 kts | 146° |
| 2026-04-20 22:07 | 36.53818 | -121.27985 | 31540 ft | 455 kts | 146° |
| 2026-04-20 22:08 | 36.51339 | -121.25501 | 32000 ft | 454 kts | 146° |
| 2026-04-20 22:08 | 36.48879 | -121.23037 | 32467 ft | 452 kts | 146° |
| 2026-04-20 22:08 | 36.46437 | -121.20595 | 32810 ft | 453 kts | 146° |
| 2026-04-20 22:08 | 36.43980 | -121.18139 | 33269 ft | 451 kts | 146° |
| 2026-04-20 22:09 | 36.41547 | -121.15710 | 33552 ft | 452 kts | 146° |
| 2026-04-20 22:09 | 36.39085 | -121.13252 | 33964 ft | 451 kts | 146° |
| 2026-04-20 22:09 | 36.36651 | -121.10825 | 34372 ft | 450 kts | 146° |
| 2026-04-20 22:09 | 36.34210 | -121.08394 | 34702 ft | 450 kts | 146° |
| 2026-04-20 22:10 | 36.31779 | -121.05974 | 34987 ft | 448 kts | 146° |
| 2026-04-20 22:10 | 36.26920 | -121.01143 | 34969 ft | 446 kts | 146° |
| 2026-04-20 22:11 | 36.22076 | -120.96336 | 34973 ft | 446 kts | 146° |
| 2026-04-20 22:11 | 36.17234 | -120.91539 | 34980 ft | 447 kts | 146° |
| 2026-04-20 22:12 | 36.12391 | -120.86749 | 34979 ft | 446 kts | 145° |
| 2026-04-20 22:12 | 36.07535 | -120.81953 | 34974 ft | 447 kts | 145° |
| 2026-04-20 22:13 | 36.02680 | -120.77167 | 34979 ft | 450 kts | 145° |
| 2026-04-20 22:13 | 35.97787 | -120.72350 | 34979 ft | 449 kts | 145° |
| 2026-04-20 22:14 | 35.92899 | -120.67546 | 34969 ft | 448 kts | 145° |
| 2026-04-20 22:14 | 35.88028 | -120.62767 | 34989 ft | 449 kts | 145° |
| 2026-04-20 22:15 | 35.83136 | -120.57976 | 34995 ft | 450 kts | 145° |
| 2026-04-20 22:15 | 35.78257 | -120.53202 | 35000 ft | 448 kts | 145° |
| 2026-04-20 22:16 | 35.73369 | -120.48428 | 34994 ft | 449 kts | 145° |
| 2026-04-20 22:16 | 35.68502 | -120.43684 | 34994 ft | 449 kts | 145° |
| 2026-04-20 22:17 | 35.63592 | -120.38906 | 34993 ft | 450 kts | 145° |
| 2026-04-20 22:17 | 35.58707 | -120.34158 | 34986 ft | 450 kts | 146° |
| 2026-04-20 22:18 | 35.53793 | -120.29391 | 34989 ft | 449 kts | 146° |
| 2026-04-20 22:18 | 35.48869 | -120.24623 | 34981 ft | 450 kts | 146° |
| 2026-04-20 22:19 | 35.43983 | -120.19898 | 34986 ft | 449 kts | 146° |
| 2026-04-20 22:19 | 35.39051 | -120.15135 | 34995 ft | 450 kts | 146° |
| 2026-04-20 22:20 | 35.34130 | -120.10393 | 34996 ft | 452 kts | 146° |
| 2026-04-20 22:20 | 35.29196 | -120.05644 | 35003 ft | 453 kts | 146° |
| 2026-04-20 22:21 | 35.24246 | -120.00887 | 35003 ft | 453 kts | 146° |
| 2026-04-20 22:21 | 35.19266 | -119.96111 | 35013 ft | 455 kts | 146° |
| 2026-04-20 22:22 | 35.14298 | -119.91352 | 35017 ft | 455 kts | 146° |
| 2026-04-20 22:22 | 35.09374 | -119.86549 | 35019 ft | 455 kts | 141° |
| 2026-04-20 22:23 | 35.04918 | -119.81017 | 35023 ft | 459 kts | 139° |
| 2026-04-20 22:23 | 35.00503 | -119.75474 | 35023 ft | 456 kts | 139° |
| 2026-04-20 22:24 | 34.96075 | -119.69913 | 35028 ft | 460 kts | 139° |
| 2026-04-20 22:24 | 34.91612 | -119.64315 | 35029 ft | 459 kts | 139° |
| 2026-04-20 22:25 | 34.87184 | -119.58766 | 35043 ft | 458 kts | 139° |
| 2026-04-20 22:25 | 34.82747 | -119.53217 | 35060 ft | 459 kts | 139° |
| 2026-04-20 22:26 | 34.78268 | -119.47622 | 35063 ft | 459 kts | 139° |
| 2026-04-20 22:26 | 34.73823 | -119.42079 | 35070 ft | 460 kts | 139° |
| 2026-04-20 22:27 | 34.67120 | -119.33740 | 35064 ft | 460 kts | 139° |
| 2026-04-20 22:27 | 34.62649 | -119.28188 | 35069 ft | 460 kts | 140° |
| 2026-04-20 22:28 | 34.58186 | -119.22655 | 35071 ft | 460 kts | 139° |
| 2026-04-20 22:28 | 34.53733 | -119.17142 | 35072 ft | 460 kts | 139° |
| 2026-04-20 22:29 | 34.49225 | -119.11572 | 35073 ft | 462 kts | 139° |
| 2026-04-20 22:29 | 34.44741 | -119.06039 | 35051 ft | 462 kts | 140° |
| 2026-04-20 22:30 | 34.40223 | -119.00475 | 35051 ft | 464 kts | 139° |
| 2026-04-20 22:30 | 34.35695 | -118.94907 | 35037 ft | 461 kts | 139° |
| 2026-04-20 22:31 | 34.31174 | -118.89356 | 35027 ft | 463 kts | 139° |
| 2026-04-20 22:31 | 34.26675 | -118.83842 | 35025 ft | 463 kts | 139° |
| 2026-04-20 22:32 | 34.22164 | -118.78321 | 35020 ft | 462 kts | 140° |
| 2026-04-20 22:32 | 34.17624 | -118.72776 | 35027 ft | 466 kts | 140° |
| 2026-04-20 22:33 | 34.13073 | -118.67223 | 35035 ft | 465 kts | 139° |
| 2026-04-20 22:33 | 34.08576 | -118.61741 | 34834 ft | 448 kts | 139° |
| 2026-04-20 22:34 | 34.06408 | -118.59100 | 33977 ft | 440 kts | 140° |
| 2026-04-20 22:34 | 34.04268 | -118.56503 | 33237 ft | 443 kts | 139° |
| 2026-04-20 22:34 | 34.02054 | -118.53821 | 32479 ft | 455 kts | 139° |
| 2026-04-20 22:34 | 33.99816 | -118.51108 | 31747 ft | 458 kts | 139° |
| 2026-04-20 22:35 | 33.97575 | -118.48389 | 31133 ft | 455 kts | 139° |
| 2026-04-20 22:35 | 33.95373 | -118.45719 | 30605 ft | 451 kts | 139° |
| 2026-04-20 22:35 | 33.93174 | -118.43046 | 30119 ft | 450 kts | 137° |
| 2026-04-20 22:35 | 33.91020 | -118.40288 | 29601 ft | 456 kts | 136° |
| 2026-04-20 22:36 | 33.88827 | -118.37465 | 29059 ft | 457 kts | 136° |
| 2026-04-20 22:36 | 33.86670 | -118.34692 | 28532 ft | 451 kts | 137° |
| 2026-04-20 22:36 | 33.84569 | -118.31993 | 28009 ft | 444 kts | 137° |
| 2026-04-20 22:36 | 33.82459 | -118.29285 | 27483 ft | 438 kts | 137° |
| 2026-04-20 22:37 | 33.80393 | -118.26636 | 26970 ft | 435 kts | 137° |
| 2026-04-20 22:37 | 33.78327 | -118.23993 | 26461 ft | 432 kts | 137° |
| 2026-04-20 22:37 | 33.76263 | -118.21353 | 25951 ft | 430 kts | 137° |
| 2026-04-20 22:37 | 33.74227 | -118.18749 | 25450 ft | 426 kts | 137° |
| 2026-04-20 22:38 | 33.72223 | -118.16190 | 24955 ft | 422 kts | 137° |
| 2026-04-20 22:38 | 33.70228 | -118.13643 | 24463 ft | 418 kts | 137° |
| 2026-04-20 22:38 | 33.68254 | -118.11126 | 23976 ft | 414 kts | 137° |
| 2026-04-20 22:38 | 33.66277 | -118.08607 | 23488 ft | 410 kts | 137° |
| 2026-04-20 22:39 | 33.64328 | -118.06124 | 23013 ft | 407 kts | 137° |
| 2026-04-20 22:39 | 33.62413 | -118.03687 | 22540 ft | 404 kts | 137° |
| 2026-04-20 22:39 | 33.60492 | -118.01244 | 22070 ft | 400 kts | 137° |
| 2026-04-20 22:39 | 33.58576 | -117.98810 | 21606 ft | 399 kts | 137° |
| 2026-04-20 22:40 | 33.56677 | -117.96400 | 21153 ft | 397 kts | 137° |
| 2026-04-20 22:40 | 33.54809 | -117.94029 | 20703 ft | 396 kts | 137° |
| 2026-04-20 22:40 | 33.52921 | -117.91634 | 20248 ft | 393 kts | 137° |
| 2026-04-20 22:40 | 33.51040 | -117.89249 | 19795 ft | 390 kts | 137° |
| 2026-04-20 22:41 | 33.49191 | -117.86907 | 19364 ft | 388 kts | 137° |
| 2026-04-20 22:41 | 33.47353 | -117.84583 | 18899 ft | 386 kts | 137° |
| 2026-04-20 22:41 | 33.45502 | -117.82242 | 18447 ft | 385 kts | 136° |
| 2026-04-20 22:41 | 33.43675 | -117.79931 | 18032 ft | 383 kts | 136° |
| 2026-04-20 22:42 | 33.41842 | -117.77616 | 17596 ft | 381 kts | 136° |
| 2026-04-20 22:42 | 33.40033 | -117.75334 | 17166 ft | 379 kts | 136° |
| 2026-04-20 22:42 | 33.38240 | -117.73071 | 16716 ft | 376 kts | 136° |
| 2026-04-20 22:42 | 33.36442 | -117.70805 | 16268 ft | 373 kts | 136° |
| 2026-04-20 22:43 | 33.34657 | -117.68557 | 15810 ft | 370 kts | 136° |
| 2026-04-20 22:43 | 33.32900 | -117.66344 | 15423 ft | 368 kts | 136° |
| 2026-04-20 22:43 | 33.31149 | -117.64142 | 14997 ft | 366 kts | 136° |
| 2026-04-20 22:43 | 33.29385 | -117.61924 | 14485 ft | 365 kts | 136° |
| 2026-04-20 22:44 | 33.27669 | -117.59767 | 14049 ft | 360 kts | 136° |
| 2026-04-20 22:44 | 33.25944 | -117.57602 | 13652 ft | 356 kts | 136° |
| 2026-04-20 22:44 | 33.24252 | -117.55479 | 13243 ft | 356 kts | 136° |
| 2026-04-20 22:44 | 33.22525 | -117.53313 | 12825 ft | 355 kts | 135° |
| 2026-04-20 22:45 | 33.20849 | -117.51211 | 12413 ft | 352 kts | 135° |
| 2026-04-20 22:45 | 33.19157 | -117.49091 | 11997 ft | 349 kts | 135° |
| 2026-04-20 22:45 | 33.17490 | -117.47003 | 11589 ft | 346 kts | 135° |
| 2026-04-20 22:45 | 33.15848 | -117.44950 | 11188 ft | 344 kts | 135° |
| 2026-04-20 22:46 | 33.14157 | -117.42930 | 10785 ft | 340 kts | 142° |
| 2026-04-20 22:46 | 33.12171 | -117.41454 | 10425 ft | 336 kts | 155° |
| 2026-04-20 22:46 | 33.10092 | -117.40275 | 10201 ft | 325 kts | 155° |
| 2026-04-20 22:46 | 33.08095 | -117.39135 | 10004 ft | 307 kts | 155° |
| 2026-04-20 22:47 | 33.06220 | -117.38078 | 9805 ft | 288 kts | 155° |
| 2026-04-20 22:47 | 33.04474 | -117.37100 | 9587 ft | 268 kts | 155° |
| 2026-04-20 22:47 | 33.02788 | -117.36159 | 9460 ft | 266 kts | 155° |
| 2026-04-20 22:47 | 33.01110 | -117.35225 | 9317 ft | 268 kts | 155° |
| 2026-04-20 22:48 | 32.99427 | -117.34290 | 9143 ft | 268 kts | 156° |
| 2026-04-20 22:48 | 32.97723 | -117.33343 | 8967 ft | 267 kts | 156° |
| 2026-04-20 22:48 | 32.96039 | -117.32409 | 8789 ft | 266 kts | 156° |
| 2026-04-20 22:48 | 32.94373 | -117.31485 | 8621 ft | 266 kts | 155° |
| 2026-04-20 22:49 | 32.92696 | -117.30555 | 8445 ft | 265 kts | 155° |
| 2026-04-20 22:49 | 32.91023 | -117.29629 | 8270 ft | 264 kts | 156° |
| 2026-04-20 22:49 | 32.89359 | -117.28706 | 8095 ft | 264 kts | 156° |
| 2026-04-20 22:49 | 32.87696 | -117.27786 | 7915 ft | 262 kts | 156° |
| 2026-04-20 22:50 | 32.86142 | -117.26679 | 7746 ft | 263 kts | 136° |
| 2026-04-20 22:50 | 32.85094 | -117.24908 | 7636 ft | 265 kts | 120° |
| 2026-04-20 22:50 | 32.84271 | -117.22917 | 7469 ft | 267 kts | 112° |
| 2026-04-20 22:50 | 32.83633 | -117.20840 | 7301 ft | 266 kts | 111° |
| 2026-04-20 22:51 | 32.83029 | -117.18795 | 7132 ft | 265 kts | 111° |
| 2026-04-20 22:51 | 32.82410 | -117.16713 | 6963 ft | 264 kts | 110° |
| 2026-04-20 22:51 | 32.81796 | -117.14661 | 6800 ft | 264 kts | 110° |
| 2026-04-20 22:51 | 32.81179 | -117.12611 | 6641 ft | 263 kts | 111° |
| 2026-04-20 22:52 | 32.80573 | -117.10557 | 6480 ft | 262 kts | 109° |
| 2026-04-20 22:52 | 32.80062 | -117.08498 | 6321 ft | 262 kts | 106° |
| 2026-04-20 22:52 | 32.79596 | -117.06397 | 6166 ft | 261 kts | 105° |
| 2026-04-20 22:52 | 32.79134 | -117.04323 | 6012 ft | 261 kts | 105° |
| 2026-04-20 22:53 | 32.78663 | -117.02232 | 5863 ft | 261 kts | 106° |
| 2026-04-20 22:53 | 32.78197 | -117.00159 | 5715 ft | 260 kts | 105° |
| 2026-04-20 22:53 | 32.77728 | -116.98086 | 5576 ft | 260 kts | 105° |
| 2026-04-20 22:53 | 32.77255 | -116.96009 | 5440 ft | 260 kts | 106° |
| 2026-04-20 22:54 | 32.76534 | -116.94085 | 5334 ft | 257 kts | 130° |
| 2026-04-20 22:54 | 32.75198 | -116.92652 | 5234 ft | 260 kts | 144° |
| 2026-04-20 22:54 | 32.73711 | -116.91393 | 4929 ft | 264 kts | 150° |
| 2026-04-20 22:54 | 32.72065 | -116.90764 | 4998 ft | 242 kts | 180° |
| 2026-04-20 22:55 | 32.70472 | -116.91144 | 4840 ft | 234 kts | 204° |
| 2026-04-20 22:55 | 32.69045 | -116.92106 | 4441 ft | 236 kts | 213° |
| 2026-04-20 22:55 | 32.67721 | -116.93151 | 4453 ft | 219 kts | 220° |
| 2026-04-20 22:55 | 32.66892 | -116.94550 | 4459 ft | 199 kts | 259° |
| 2026-04-20 22:56 | 32.67088 | -116.96058 | 4462 ft | 183 kts | 296° |
| 2026-04-20 22:56 | 32.67669 | -116.97397 | 4333 ft | 181 kts | 294° |
| 2026-04-20 22:56 | 32.68158 | -116.98774 | 4166 ft | 181 kts | 291° |
| 2026-04-20 22:56 | 32.68597 | -117.00158 | 4032 ft | 178 kts | 289° |
| 2026-04-20 22:57 | 32.68996 | -117.01529 | 3738 ft | 178 kts | 288° |
| 2026-04-20 22:57 | 32.69381 | -117.02937 | 3431 ft | 176 kts | 288° |
| 2026-04-20 22:57 | 32.69743 | -117.04318 | 3116 ft | 180 kts | 287° |
| 2026-04-20 22:57 | 32.70119 | -117.05791 | 2974 ft | 187 kts | 287° |
| 2026-04-20 22:58 | 32.70478 | -117.07224 | 2637 ft | 177 kts | 286° |
| 2026-04-20 22:58 | 32.70788 | -117.08563 | 2314 ft | 166 kts | 283° |
| 2026-04-20 22:58 | 32.71084 | -117.09899 | 1707 ft | 170 kts | 285° |
| 2026-04-20 22:58 | 32.71408 | -117.11221 | 1322 ft | 160 kts | 286° |
| 2026-04-20 22:59 | 32.71715 | -117.12431 | 1185 ft | 146 kts | 286° |
| 2026-04-20 22:59 | 32.72005 | -117.13515 | 1009 ft | 137 kts | 287° |
| 2026-04-20 22:59 | 32.72285 | -117.14600 | 711 ft | 138 kts | 285° |
| 2026-04-20 22:59 | 32.72557 | -117.15672 | 497 ft | 134 kts | 284° |
| 2026-04-20 23:00 | 32.72825 | -117.16737 | 285 ft | 138 kts | 285° |
| 2026-04-20 23:00 | 32.73081 | -117.17827 | 69 ft | 133 kts | 287° |
| 2026-04-20 23:00 | 32.73327 | -117.18823 | 28 ft | 109 kts | 282° |
| 2026-04-20 23:00 | 32.73469 | -117.19437 | 27 ft | 51 kts | 286° |
| 2026-04-20 23:01 | 32.73526 | -117.19685 | 24 ft | 18 kts | 280° |
| 2026-04-20 23:01 | 32.73517 | -117.19816 | 24 ft | 6 kts | 246° |
| 2026-04-20 23:01 | 32.73497 | -117.19867 | 24 ft | 6 kts | 247° |
| 2026-04-20 23:01 | 32.73477 | -117.19918 | 24 ft | 6 kts | 237° |
| 2026-04-20 23:02 | 32.73444 | -117.19958 | 24 ft | 6 kts | 209° |
| 2026-04-20 23:02 | 32.73400 | -117.19972 | 24 ft | 6 kts | 185° |
| 2026-04-20 23:02 | 32.73360 | -117.19960 | 24 ft | 5 kts | 138° |
| 2026-04-20 23:02 | 32.73342 | -117.19922 | 24 ft | 2 kts | 116° |
| 2026-04-20 23:03 | 32.73341 | -117.19917 | 24 ft | 0 kts | 116° |